• Join FlightAware (Why Join?)
  • Login
  • US Flag 
02:12AM EST


 

Airport Tracker/Info


-or-


 

Live Flight TrackerFlight Track Log ✈ FIN666 ✈ 08-Nov-2013 ✈ EKCH / CPH - EFHK / HEL

Flight Track Log - Related Links

Times and Time Zones

All times are in EST time to prevent confusion due to time zone crossing. See the FIN666 flight status page for this flight to view local times or setup timezone preferences in your user account.

Time Position Orientation Groundspeed Altitude Reporting Facility
EST Latitude Longitude Course Direction KTS MPH feet Rate Location/Type
07:24AM 55.9343 13.3125 49° Northeast  Level Estimated
07:25AM 56.0129 13.4784 50° Northeast  Level Estimated
07:26AM 56.0912 13.6449 50° Northeast  Level Estimated
07:27AM 56.1693 13.8120 50° Northeast  Level Estimated
07:28AM 56.2484 13.9825 50° Northeast  Level Estimated
07:29AM 56.3273 14.1536 50° Northeast  Level Estimated
07:30AM 56.4059 14.3255 50° Northeast  Level Estimated
07:31AM 56.4842 14.4980 51° Northeast  Level Estimated
07:32AM 56.5624 14.6713 51° Northeast  Level Estimated
07:33AM 56.6403 14.8453 51° Northeast  Level Estimated
07:34AM 56.7179 15.0200 51° Northeast  Level Estimated
07:35AM 56.7953 15.1954 51° Northeast  Level Estimated
07:36AM 56.8725 15.3716 51° Northeast  Level Estimated
07:37AM 56.9494 15.5485 51° Northeast  Level Estimated
07:38AM 57.0272 15.7288 52° Northeast  Level Estimated
07:39AM 57.1048 15.9100 52° Northeast  Level Estimated
07:40AM 57.1821 16.0919 52° Northeast  Level Estimated
07:41AM 57.2592 16.2746 52° Northeast  Level Estimated
07:42AM 57.3360 16.4580 52° Northeast  Level Estimated
07:43AM 57.4125 16.6422 52° Northeast  Level Estimated
07:44AM 57.4888 16.8272 52° Northeast  Level Estimated
07:45AM 57.5647 17.0129 53° Northeast  Level Estimated
07:46AM 57.6404 17.1994 53° Northeast  Level Estimated
07:47AM 57.7159 17.3867 53° Northeast  Level Estimated
07:48AM 57.7910 17.5748 53° Northeast  Level Estimated
07:49AM 57.8659 17.7637 53° Northeast  Level Estimated
07:50AM 57.9405 17.9533 53° Northeast  Level Estimated
07:51AM 58.0148 18.1438 54° Northeast  Level Estimated
07:52AM 58.0889 18.3350 54° Northeast  Level Estimated
07:53AM 58.1626 18.5270 54° Northeast  Level Estimated
07:54AM 58.2360 18.7198 54° Northeast  Level Estimated
07:55AM 58.3092 18.9135 54° Northeast  Level Estimated
07:56AM 58.3821 19.1079 54° Northeast  Level Estimated
07:57AM 58.4546 19.3031 55° Northeast  Level Estimated
07:58AM 58.5269 19.4991 55° Northeast  Level Estimated
07:59AM 58.5989 19.6959 55° Northeast  Level Estimated
08:00AM 58.6706 19.8936 55° Northeast  Level Estimated
08:01AM 58.7419 20.0921 55° Northeast  Level Estimated
08:02AM 58.8130 20.2913 55° Northeast  Level Estimated
08:03AM 58.8837 20.4914 56° Northeast  Level Estimated
08:04AM 58.9542 20.6923 56° Northeast  Level Estimated
08:05AM 59.0243 20.8940 56° Northeast  Level Estimated
08:06AM 59.0941 21.0966 56° Northeast  Level Estimated
08:07AM 59.1636 21.3000 56° Northeast  Level Estimated
08:08AM 59.2328 21.5042 56° Northeast  Level Estimated
08:09AM 59.3016 21.7092 57° Northeast  Level Estimated
08:10AM 59.3702 21.9151 57° Northeast  Level Estimated
08:11AM 59.4384 22.1217 57° Northeast  Level Estimated
08:12AM 59.5062 22.3293 57° Northeast  Level Estimated
08:13AM 59.5738 22.5376 57° Northeast  Level Estimated
08:14AM 59.6410 22.7468 57° Northeast  Level Estimated
08:15AM 59.7079 22.9568 58° Northeast  Level Estimated
08:16AM 59.7744 23.1677 58° Northeast  Level Estimated
08:17AM 59.8407 23.3794 58° Northeast  Level Estimated
08:18AM 59.9065 23.5920 58° Northeast  Level Estimated
08:19AM 59.9720 23.8054 58° Northeast  Level Estimated
08:20AM 60.0372 24.0196 59° Northeast  Level Estimated
08:21AM 60.1021 24.2347 59° Northeast  Level Estimated
08:22AM 60.1665 24.4506 59° Northeast  Level Estimated
08:23AM 60.2307 24.6674 59° Northeast  Level Estimated
08:24AM 60.2944 24.8850 59° Northeast  Level Estimated
08:25AM 60.3172 24.9633 60° Northeast  Level Estimated
08:26AM 60.3172 24.9633 37° Northeast  Level Estimated
08:27AM 60.3172 24.9633 37° Northeast  Level Estimated
08:28AM 60.3172 24.9633 37° Northeast  Level Estimated
08:29AM 60.3172 24.9633 37° Northeast  Level Estimated
08:30AM 60.3172 24.9633 37° Northeast  Level Estimated
08:31AM 60.3172 24.9633 37° Northeast  Level Estimated
08:32AM 60.3172 24.9633 37° Northeast  Level Estimated
08:33AM 60.3172 24.9633 37° Northeast  Level Estimated
08:34AM 60.3172 24.9633 37° Northeast  Level Estimated
08:35AM 60.3172 24.9633 37° Northeast  Level Estimated